Time;durP1;ratioP1;P1;durP2;ratioP2;P2;SDS_P1;SDS_P2;PMS_P1;PMS_P2;Temp;Humidity;BMP_temperature;BMP_pressure;BME280_temperature;BME280_humidity;BME280_pressure;Samples;Min_cycle;Max_cycle;Signal;HPM_P1;HPM_P2
2024/03/08 00:00:09;;;;;;;29.63;16.43;;;;;;;1.19;92.03;101456.56;5047766;28;20228;-82
2024/03/08 00:02:36;;;;;;;27.53;16.20;;;;;;;1.15;91.97;101460.97;5049306;28;20689;-81
2024/03/08 00:05:03;;;;;;;29.73;14.63;;;;;;;1.12;91.83;101462.75;5052698;28;20293;-82
2024/03/08 00:07:30;;;;;;;24.70;14.80;;;;;;;1.12;92.21;101465.38;5058215;28;20240;-82
2024/03/08 00:09:57;;;;;;;28.37;15.03;;;;;;;1.10;92.69;101459.28;5056428;28;20685;-82
2024/03/08 00:12:26;;;;;;;31.17;16.33;;;;;;;1.08;92.82;101464.56;5050823;28;20209;-83
2024/03/08 00:14:54;;;;;;;26.97;16.27;;;;;;;1.08;92.91;101464.56;5060137;28;20698;-81
2024/03/08 00:17:22;;;;;;;29.53;15.27;;;;;;;1.02;92.98;101462.88;5043037;28;20678;-81
2024/03/08 00:19:49;;;;;;;28.70;14.87;;;;;;;1.01;92.86;101463.78;5045928;28;20228;-81
2024/03/08 00:22:16;;;;;;;28.73;15.80;;;;;;;1.01;92.84;101468.16;5051294;28;20202;-82
2024/03/08 00:24:42;;;;;;;27.07;14.67;;;;;;;0.96;93.09;101462.06;5060394;28;20630;-82
2024/03/08 00:27:09;;;;;;;29.43;15.33;;;;;;;0.95;93.37;101460.34;5054381;28;20304;-81
2024/03/08 00:29:38;;;;;;;28.43;15.63;;;;;;;0.90;93.17;101449.03;5049789;28;20255;-81
2024/03/08 00:32:07;;;;;;;28.30;15.37;;;;;;;0.93;93.77;101459.47;5047963;28;20197;-81
2024/03/08 00:34:36;;;;;;;30.90;15.90;;;;;;;0.90;93.76;101463.00;5055231;28;20204;-83
2024/03/08 00:37:03;;;;;;;26.47;15.70;;;;;;;0.90;94.23;101460.38;5044980;28;20259;-82
2024/03/08 00:39:29;;;;;;;34.20;16.20;;;;;;;0.89;93.81;101452.56;5048734;28;20283;-82
2024/03/08 00:41:56;;;;;;;28.50;16.23;;;;;;;0.86;94.16;101460.44;5050547;28;20240;-83
2024/03/08 00:44:23;;;;;;;31.37;16.73;;;;;;;0.83;94.12;101453.47;5054638;28;20284;-82
2024/03/08 00:46:51;;;;;;;29.43;16.00;;;;;;;0.82;94.65;101453.50;5049642;28;20264;-82
2024/03/08 00:49:17;;;;;;;27.47;15.60;;;;;;;0.80;94.82;101450.03;5052821;28;20674;-82
2024/03/08 00:51:44;;;;;;;28.60;15.10;;;;;;;0.79;94.93;101448.28;5051253;28;20292;-83
2024/03/08 00:54:11;;;;;;;28.80;15.90;;;;;;;0.77;94.98;101448.28;5049737;28;20256;-83
2024/03/08 00:56:39;;;;;;;25.97;14.67;;;;;;;0.75;94.92;101441.31;5048834;28;20236;-83
2024/03/08 00:59:06;;;;;;;27.77;15.50;;;;;;;0.73;94.82;101433.47;5049147;28;20205;-81
2024/03/08 01:01:33;;;;;;;26.30;14.67;;;;;;;0.73;94.68;101432.59;5052136;28;20280;-82
2024/03/08 01:04:00;;;;;;;29.43;15.97;;;;;;;0.72;94.97;101434.34;5050453;28;20233;-83
2024/03/08 01:06:27;;;;;;;26.17;15.40;;;;;;;0.72;95.13;101425.66;5054329;28;20261;-82
2024/03/08 01:08:54;;;;;;;30.70;15.47;;;;;;;0.72;94.90;101428.28;5052990;28;20209;-82
2024/03/08 01:11:21;;;;;;;28.20;15.60;;;;;;;0.69;94.83;101421.31;5054168;28;20244;-82
2024/03/08 01:13:49;;;;;;;28.97;16.30;;;;;;;0.68;94.76;101417.81;5054787;28;20229;-83
2024/03/08 01:16:16;;;;;;;25.20;15.43;;;;;;;0.68;94.96;101416.94;5048425;28;20229;-81
2024/03/08 01:18:43;;;;;;;27.47;15.47;;;;;;;0.64;94.90;101410.88;5049076;28;20209;-81
2024/03/08 01:21:11;;;;;;;26.23;15.13;;;;;;;0.63;95.07;101406.50;5050864;28;20319;-81
2024/03/08 01:23:37;;;;;;;32.20;15.90;;;;;;;0.62;95.13;101406.50;5049845;28;20229;-81
2024/03/08 01:26:04;;;;;;;30.70;16.30;;;;;;;0.59;95.32;101402.16;5048893;28;20229;-83
2024/03/08 01:28:31;;;;;;;29.73;16.63;;;;;;;0.57;94.73;101396.06;5050831;28;20215;-83
2024/03/08 01:30:58;;;;;;;27.13;15.27;;;;;;;0.54;94.91;101403.97;5049768;28;20605;-83
2024/03/08 01:33:26;;;;;;;28.00;15.50;;;;;;;0.52;94.91;101397.88;5060249;28;20678;-83
2024/03/08 01:35:52;;;;;;;28.37;15.83;;;;;;;0.52;95.29;101392.66;5053141;28;20245;-83
2024/03/08 01:38:21;;;;;;;30.83;16.40;;;;;;;0.48;95.13;101390.94;5049203;28;20256;-82
2024/03/08 01:40:48;;;;;;;29.10;16.93;;;;;;;0.45;95.23;101393.59;5051449;28;20197;-82
2024/03/08 01:43:21;;;;;;;28.47;16.83;;;;;;;0.42;95.36;101385.75;5053702;28;20241;-82
2024/03/08 01:45:48;;;;;;;31.67;17.10;;;;;;;0.39;95.01;101383.16;5046299;28;20276;-83
2024/03/08 01:48:15;;;;;;;38.13;19.07;;;;;;;0.36;95.12;101379.72;5052014;28;20237;-83
2024/03/08 01:50:42;;;;;;;37.60;19.60;;;;;;;0.31;94.59;101379.75;5053603;28;20233;-82
2024/03/08 01:53:11;;;;;;;38.33;18.97;;;;;;;0.26;95.01;101365.81;5052742;28;20202;-82
2024/03/08 01:55:40;;;;;;;41.10;18.87;;;;;;;0.24;95.27;101368.47;5049824;28;20780;-82
2024/03/08 01:58:07;;;;;;;44.17;20.07;;;;;;;0.24;95.33;101372.81;5049482;28;20197;-83
2024/03/08 02:00:36;;;;;;;34.07;18.73;;;;;;;0.20;96.20;101371.13;5050239;28;20296;-82
2024/03/08 02:03:03;;;;;;;33.87;17.93;;;;;;;0.17;95.97;101366.81;5050460;28;20823;-82
2024/03/08 02:05:30;;;;;;;30.47;16.87;;;;;;;0.16;96.31;101354.59;5055672;28;20712;-81
2024/03/08 02:07:57;;;;;;;31.87;17.17;;;;;;;0.15;96.51;101355.47;5053813;28;20369;-81
2024/03/08 02:10:24;;;;;;;31.03;16.53;;;;;;;0.13;96.82;101354.59;5059897;28;20229;-82
2024/03/08 02:12:52;;;;;;;26.83;15.67;;;;;;;0.11;96.86;101351.13;5058810;28;20201;-83
2024/03/08 02:15:19;;;;;;;33.40;17.37;;;;;;;0.10;97.15;101345.91;5056360;28;20307;-83
2024/03/08 02:17:46;;;;;;;31.37;17.27;;;;;;;0.08;96.85;101343.28;5054118;28;20293;-82
2024/03/08 02:20:13;;;;;;;35.30;17.27;;;;;;;0.08;97.18;101342.44;5057349;28;20232;-82
2024/03/08 02:22:41;;;;;;;29.20;16.63;;;;;;;0.05;97.40;101348.56;5062261;28;20292;-83
2024/03/08 02:25:09;;;;;;;28.90;15.63;;;;;;;0.03;97.48;101338.97;5058499;28;20672;-83
2024/03/08 02:27:36;;;;;;;29.20;16.87;;;;;;;0.02;97.80;101326.75;5056598;28;20206;-82
2024/03/08 02:30:02;;;;;;;34.53;17.90;;;;;;;0.03;97.86;101333.72;5058150;28;20299;-82
2024/03/08 02:32:29;;;;;;;31.93;16.67;;;;;;;0.02;97.69;101325.00;5053380;28;20551;-81
2024/03/08 02:34:59;;;;;;;32.90;18.03;;;;;;;-0.02;97.77;101328.56;5050251;28;20295;-82
2024/03/08 02:37:26;;;;;;;31.53;17.20;;;;;;;-0.05;97.98;101324.22;5054751;28;20248;-81
2024/03/08 02:39:54;;;;;;;34.47;17.70;;;;;;;-0.08;97.89;101323.38;5053957;28;20228;-82
2024/03/08 02:42:21;;;;;;;34.83;18.67;;;;;;;-0.10;97.91;101319.91;5050059;28;20206;-83
2024/03/08 02:44:48;;;;;;;33.83;18.10;;;;;;;-0.14;97.94;101316.44;5051288;28;20704;-83
2024/03/08 02:47:15;;;;;;;34.77;17.83;;;;;;;-0.14;98.27;101329.53;5054532;28;20225;-82
2024/03/08 02:49:42;;;;;;;34.60;17.70;;;;;;;-0.16;98.50;101322.56;5055181;28;20217;-81
2024/03/08 02:52:08;;;;;;;29.47;17.00;;;;;;;-0.15;98.71;101319.94;5054317;28;20197;-82
2024/03/08 02:54:36;;;;;;;34.53;18.37;;;;;;;-0.17;98.80;101315.59;5047756;28;20300;-82
2024/03/08 02:57:07;;;;;;;34.60;17.10;;;;;;;-0.20;98.59;101310.41;5051140;28;20221;-81
2024/03/08 02:59:34;;;;;;;34.00;17.90;;;;;;;-0.25;98.72;101306.94;5052681;28;20222;-82
2024/03/08 03:02:00;;;;;;;38.10;18.37;;;;;;;-0.28;98.54;101307.84;5055635;28;20210;-82
2024/03/08 03:04:27;;;;;;;35.67;18.10;;;;;;;-0.31;98.42;101302.63;5058635;28;20231;-82
2024/03/08 03:06:54;;;;;;;37.23;18.37;;;;;;;-0.35;98.79;101296.53;5056710;28;20251;-82
2024/03/08 03:09:23;;;;;;;32.20;17.90;;;;;;;-0.37;98.64;101302.69;5054113;28;20708;-83
2024/03/08 03:11:50;;;;;;;38.87;19.60;;;;;;;-0.36;99.11;101299.19;5053079;28;20695;-82
2024/03/08 03:14:18;;;;;;;35.30;18.47;;;;;;;-0.39;99.80;101292.25;5053430;28;20237;-80
2024/03/08 03:16:45;;;;;;;37.43;18.53;;;;;;;-0.40;100.00;101284.41;5054821;28;20233;-81
2024/03/08 03:19:12;;;;;;;37.30;17.43;;;;;;;-0.40;100.00;101287.88;5053007;28;20882;-84
2024/03/08 03:21:39;;;;;;;38.13;18.70;;;;;;;-0.41;100.00;101280.03;5053768;28;20708;-82
2024/03/08 03:24:09;;;;;;;41.90;19.30;;;;;;;-0.42;100.00;101281.78;5054438;28;20618;-82
2024/03/08 03:26:37;;;;;;;37.60;18.00;;;;;;;-0.42;100.00;101284.41;5050124;28;20302;-82
2024/03/08 03:29:05;;;;;;;37.57;19.67;;;;;;;-0.39;100.00;101291.38;5052659;28;20202;-82
2024/03/08 03:31:34;;;;;;;39.10;19.27;;;;;;;-0.40;100.00;101279.16;5053447;28;20638;-83
2024/03/08 03:34:02;;;;;;;39.70;19.93;;;;;;;-0.40;100.00;101281.78;5050272;28;20215;-82
2024/03/08 03:36:29;;;;;;;35.07;18.47;;;;;;;-0.41;100.00;101283.53;5047719;28;20681;-82
2024/03/08 03:39:04;;;;;;;40.60;19.73;;;;;;;-0.44;100.00;101285.28;5050435;28;20205;-81
2024/03/08 03:41:31;;;;;;;37.33;18.80;;;;;;;-0.48;100.00;101283.56;5053133;28;20232;-81
2024/03/08 03:43:58;;;;;;;34.33;18.63;;;;;;;-0.53;100.00;101277.50;5060516;28;20224;-82
2024/03/08 03:46:27;;;;;;;40.60;19.70;;;;;;;-0.57;100.00;101286.28;5049928;28;20713;-82
2024/03/08 03:48:55;;;;;;;39.50;19.37;;;;;;;-0.60;100.00;101276.72;5055616;28;20301;-82
2024/03/08 03:51:21;;;;;;;36.17;18.60;;;;;;;-0.59;100.00;101282.81;5047459;28;20233;-81
2024/03/08 03:53:48;;;;;;;33.73;18.33;;;;;;;-0.62;100.00;101286.31;5053472;28;20297;-81
2024/03/08 03:56:15;;;;;;;40.27;19.60;;;;;;;-0.65;100.00;101275.88;5049345;28;20260;-81
2024/03/08 03:58:42;;;;;;;38.00;18.67;;;;;;;-0.66;100.00;101273.25;5056466;28;20335;-82
2024/03/08 04:01:09;;;;;;;34.17;18.10;;;;;;;-0.69;100.00;101271.53;5048517;28;20201;-82
2024/03/08 04:03:36;;;;;;;37.17;18.77;;;;;;;-0.71;100.00;101271.53;5056831;28;20225;-81
2024/03/08 04:06:04;;;;;;;38.43;19.07;;;;;;;-0.74;100.00;101271.59;5051585;28;20225;-82
2024/03/08 04:08:33;;;;;;;40.73;19.27;;;;;;;-0.73;100.00;101277.69;5048917;28;20256;-81
2024/03/08 04:11:00;;;;;;;38.80;19.07;;;;;;;-0.75;100.00;101272.47;5050922;28;20697;-83
2024/03/08 04:13:27;;;;;;;35.60;19.03;;;;;;;-0.75;100.00;101276.81;5052996;28;20225;-82
2024/03/08 04:15:54;;;;;;;36.93;19.13;;;;;;;-0.77;100.00;101269.00;5053566;28;20683;-83
2024/03/08 04:18:20;;;;;;;38.43;18.57;;;;;;;-0.77;100.00;101274.22;5052723;28;20723;-83
2024/03/08 04:20:47;;;;;;;44.87;20.47;;;;;;;-0.78;100.00;101271.59;5053125;28;20237;-82
2024/03/08 04:23:16;;;;;;;42.33;19.80;;;;;;;-0.79;100.00;101272.50;5046760;28;20233;-81
2024/03/08 04:25:43;;;;;;;38.97;19.87;;;;;;;-0.78;100.00;101274.22;5048961;28;20732;-82
2024/03/08 04:28:11;;;;;;;37.20;19.13;;;;;;;-0.83;100.00;101265.53;5051570;28;20235;-81
2024/03/08 04:30:39;;;;;;;36.03;19.40;;;;;;;-0.83;100.00;101270.75;5050918;28;20233;-81
2024/03/08 04:33:06;;;;;;;36.77;18.90;;;;;;;-0.83;100.00;101262.91;5052210;28;20750;-81
2024/03/08 04:35:33;;;;;;;33.53;18.27;;;;;;;-0.84;100.00;101262.06;5057101;28;20218;-82
2024/03/08 04:38:00;;;;;;;39.20;19.40;;;;;;;-0.86;100.00;101255.97;5048462;28;20213;-82
2024/03/08 04:40:28;;;;;;;40.23;19.67;;;;;;;-0.89;100.00;101255.97;5052682;28;20288;-82
2024/03/08 04:42:55;;;;;;;35.63;19.27;;;;;;;-0.93;100.00;101256.91;5049832;28;20280;-83
2024/03/08 04:45:21;;;;;;;36.50;17.97;;;;;;;-0.95;100.00;101257.78;5056183;28;20308;-82
2024/03/08 04:47:48;;;;;;;33.30;18.37;;;;;;;-0.97;100.00;101249.94;5052396;28;20288;-81
2024/03/08 04:50:15;;;;;;;36.97;18.60;;;;;;;-1.01;100.00;101256.06;5050039;28;20205;-82
2024/03/08 04:52:41;;;;;;;35.10;17.80;;;;;;;-1.02;100.00;101254.34;5049691;28;20229;-80
2024/03/08 04:55:09;;;;;;;40.87;19.57;;;;;;;-1.04;100.00;101248.25;5050503;28;20289;-81
2024/03/08 04:57:37;;;;;;;36.83;19.47;;;;;;;-1.05;100.00;101247.38;5048562;28;20205;-82
2024/03/08 05:00:10;;;;;;;37.77;19.47;;;;;;;-1.03;100.00;101247.38;5051906;28;20243;-81
2024/03/08 05:02:38;;;;;;;41.77;18.90;;;;;;;-1.04;100.00;101245.63;5051032;28;20206;-83
2024/03/08 05:05:06;;;;;;;39.83;18.90;;;;;;;-1.06;100.00;101247.38;5052872;28;20689;-83
2024/03/08 05:07:32;;;;;;;40.30;19.80;;;;;;;-1.08;100.00;101241.31;5051939;28;20197;-81
2024/03/08 05:09:59;;;;;;;38.73;19.20;;;;;;;-1.12;100.00;101245.69;5053112;28;20200;-81
2024/03/08 05:12:26;;;;;;;39.13;18.83;;;;;;;-1.13;100.00;101240.47;5050795;28;20289;-81
2024/03/08 05:14:54;;;;;;;41.30;20.37;;;;;;;-1.14;100.00;101243.97;5053270;28;20229;-82
2024/03/08 05:17:21;;;;;;;37.40;18.53;;;;;;;-1.15;100.00;101242.22;5046973;28;20229;-81
2024/03/08 05:19:49;;;;;;;38.63;18.53;;;;;;;-1.16;100.00;101246.59;5051464;28;20297;-82
2024/03/08 05:22:16;;;;;;;36.27;19.67;;;;;;;-1.16;100.00;101243.97;5044314;28;20244;-83
2024/03/08 05:24:43;;;;;;;37.87;19.17;;;;;;;-1.18;100.00;101248.34;5057394;28;20292;-82
2024/03/08 05:27:09;;;;;;;41.77;20.53;;;;;;;-1.18;100.00;101252.69;5048694;28;20712;-81
2024/03/08 05:29:36;;;;;;;41.20;19.60;;;;;;;-1.18;100.00;101250.06;5050333;28;20752;-82
2024/03/08 05:32:04;;;;;;;39.43;19.67;;;;;;;-1.20;100.00;101249.22;5049948;28;20222;-81
2024/03/08 05:34:31;;;;;;;39.43;20.53;;;;;;;-1.21;100.00;101243.13;5050961;28;20206;-83
2024/03/08 05:37:00;;;;;;;44.93;21.83;;;;;;;-1.19;100.00;101243.97;5048479;28;20247;-81
2024/03/08 05:39:26;;;;;;;39.23;19.47;;;;;;;-1.18;100.00;101242.22;5044362;28;20676;-82
2024/03/08 05:41:55;;;;;;;43.47;19.57;;;;;;;-1.14;100.00;101243.97;5051594;28;20222;-79
2024/03/08 05:44:21;;;;;;;42.33;21.40;;;;;;;-1.18;100.00;101248.34;5050916;28;20260;-82
2024/03/08 05:46:48;;;;;;;34.37;19.57;;;;;;;-1.17;100.00;101239.63;5050411;28;20316;-80
2024/03/08 05:49:16;;;;;;;43.07;20.67;;;;;;;-1.16;100.00;101251.81;5057097;28;20229;-82
2024/03/08 05:51:43;;;;;;;42.40;20.40;;;;;;;-1.14;100.00;101244.84;5060410;28;20268;-81
2024/03/08 05:54:12;;;;;;;41.70;20.73;;;;;;;-1.16;100.00;101241.34;5055620;28;20202;-82
2024/03/08 05:56:42;;;;;;;39.20;19.40;;;;;;;-1.15;100.00;101242.22;5057294;28;20230;-81
2024/03/08 05:59:09;;;;;;;38.97;19.87;;;;;;;-1.16;100.00;101245.72;5057757;28;20197;-82
2024/03/08 06:01:36;;;;;;;40.23;20.10;;;;;;;-1.14;100.00;101246.56;5056892;28;20252;-82
2024/03/08 06:04:03;;;;;;;38.30;19.47;;;;;;;-1.13;100.00;101241.34;5048861;28;20672;-81
2024/03/08 06:06:31;;;;;;;46.40;20.77;;;;;;;-1.12;100.00;101243.06;5055206;28;20304;-83
2024/03/08 06:08:58;;;;;;;40.00;20.17;;;;;;;-1.13;100.00;101241.34;5053580;28;20257;-82
2024/03/08 06:11:26;;;;;;;40.40;19.47;;;;;;;-1.09;100.00;101247.44;5049533;28;20226;-80
2024/03/08 06:13:59;;;;;;;42.20;20.50;;;;;;;-1.12;100.00;101247.44;5056437;28;20204;-82
2024/03/08 06:16:28;;;;;;;41.77;20.33;;;;;;;-1.11;100.00;101242.19;5051240;28;20723;-81
2024/03/08 06:18:57;;;;;;;44.47;21.40;;;;;;;-1.10;100.00;101240.47;5057798;28;20881;-81
2024/03/08 06:21:26;;;;;;;44.27;22.30;;;;;;;-1.08;100.00;101249.16;5060443;28;20236;-81
2024/03/08 06:23:57;;;;;;;42.23;21.17;;;;;;;-1.07;100.00;101246.50;5051501;28;20229;-80
2024/03/08 06:26:24;;;;;;;47.67;20.67;;;;;;;-1.07;100.00;101237.78;5052759;28;20218;-81
2024/03/08 06:28:51;;;;;;;42.63;21.00;;;;;;;-1.07;100.00;101236.06;5056425;28;20219;-80
2024/03/08 06:31:18;;;;;;;38.37;19.70;;;;;;;-1.04;100.00;101232.56;5052314;28;20225;-82
2024/03/08 06:33:46;;;;;;;42.73;20.90;;;;;;;-1.09;100.00;101229.13;5057229;28;20213;-81
2024/03/08 06:36:13;;;;;;;44.80;20.20;;;;;;;-1.06;100.00;101232.56;5051838;28;20268;-81
2024/03/08 06:38:42;;;;;;;45.17;20.43;;;;;;;-1.00;100.00;101222.94;5053709;28;20387;-81
2024/03/08 06:41:14;;;;;;;42.27;21.83;;;;;;;-1.01;100.00;101227.31;5056202;28;20224;-81
2024/03/08 06:43:42;;;;;;;50.27;22.30;;;;;;;-0.99;100.00;101222.94;5048981;28;20252;-80
2024/03/08 06:46:08;;;;;;;41.80;21.17;;;;;;;-0.96;100.00;101222.94;5054583;28;20313;-82
2024/03/08 06:48:35;;;;;;;48.00;22.13;;;;;;;-0.97;100.00;101222.94;5058133;28;20730;-80
2024/03/08 06:51:01;;;;;;;41.30;20.93;;;;;;;-0.95;100.00;101223.78;5053577;28;20252;-80
2024/03/08 06:53:28;;;;;;;35.23;17.77;;;;;;;-0.88;100.00;101234.19;5052852;28;20197;-82
2024/03/08 06:55:56;;;;;;;39.83;21.57;;;;;;;-0.87;100.00;101229.81;5057725;28;20312;-82
2024/03/08 06:58:23;;;;;;;44.33;21.33;;;;;;;-0.87;100.00;101220.22;5055684;28;20208;-81
2024/03/08 07:00:52;;;;;;;39.27;19.30;;;;;;;-0.84;100.00;101222.81;5055230;28;20304;-81
2024/03/08 07:03:18;;;;;;;41.03;19.73;;;;;;;-0.80;100.00;101224.53;5052227;28;20570;-80
2024/03/08 07:05:45;;;;;;;41.10;21.10;;;;;;;-0.77;100.00;101231.50;5045915;28;20814;-79
2024/03/08 07:08:12;;;;;;;41.00;20.47;;;;;;;-0.74;100.00;101226.25;5052626;28;20244;-83
2024/03/08 07:10:41;;;;;;;48.10;22.03;;;;;;;-0.68;100.00;101222.69;5052545;28;20265;-81
2024/03/08 07:13:08;;;;;;;48.47;22.77;;;;;;;-0.62;100.00;101228.75;5054302;28;20235;-81
2024/03/08 07:15:36;;;;;;;42.40;22.67;;;;;;;-0.53;100.00;101222.56;5051002;28;20233;-79
2024/03/08 07:18:03;;;;;;;46.93;21.67;;;;;;;-0.45;100.00;101221.63;5056202;28;20343;-80
2024/03/08 07:20:30;;;;;;;39.83;20.50;;;;;;;-0.42;100.00;101224.22;5048179;28;20288;-81
2024/03/08 07:22:57;;;;;;;42.37;21.80;;;;;;;-0.37;100.00;101218.94;5051401;28;20288;-81
2024/03/08 07:25:24;;;;;;;41.47;20.97;;;;;;;-0.32;100.00;101227.59;5051448;28;20233;-81
2024/03/08 07:27:51;;;;;;;44.40;22.33;;;;;;;-0.24;100.00;101224.94;5047670;28;20209;-80
2024/03/08 07:33:02;;;;;;;38.83;19.40;;;;;;;-0.14;100.00;101211.72;5046771;28;20312;-81
2024/03/08 07:35:28;;;;;;;42.47;22.53;;;;;;;-0.14;100.00;101216.09;5049621;28;20264;-81
2024/03/08 07:37:55;;;;;;;41.93;19.80;;;;;;;-0.08;100.00;101208.16;5054083;28;20233;-80
2024/03/08 07:40:23;;;;;;;34.93;16.73;;;;;;;-0.06;100.00;101209.91;5051073;28;20208;-82
2024/03/08 07:42:49;;;;;;;33.47;15.03;;;;;;;-0.01;100.00;101208.09;5053126;28;20236;-81
2024/03/08 07:45:16;;;;;;;37.30;19.23;;;;;;;0.04;100.00;101201.91;5047761;28;20288;-82
2024/03/08 07:47:43;;;;;;;34.13;18.20;;;;;;;0.12;100.00;101202.72;5052381;28;20209;-82
2024/03/08 07:50:15;;;;;;;38.20;19.30;;;;;;;0.16;100.00;101204.41;5058218;28;20228;-81
2024/03/08 07:52:42;;;;;;;35.00;18.97;;;;;;;0.24;100.00;101207.78;5048786;28;20216;-81
2024/03/08 07:55:10;;;;;;;38.13;21.13;;;;;;;0.34;100.00;101206.81;5050875;28;20311;-81
2024/03/08 07:57:37;;;;;;;38.30;18.73;;;;;;;0.45;99.02;101199.66;5052680;28;20205;-82
2024/03/08 08:00:08;;;;;;;39.23;18.97;;;;;;;0.56;98.83;101210.88;5042910;28;20228;-81
2024/03/08 08:02:35;;;;;;;31.93;17.13;;;;;;;0.67;98.19;101201.13;5050628;28;20304;-81
2024/03/08 08:05:02;;;;;;;35.40;20.07;;;;;;;0.77;97.24;101195.72;5052558;28;20212;-82
2024/03/08 08:07:30;;;;;;;38.93;19.50;;;;;;;0.87;97.61;101197.34;5049601;28;20293;-81
2024/03/08 08:09:57;;;;;;;38.90;20.63;;;;;;;0.95;96.45;101195.44;5045746;28;20288;-81
2024/03/08 08:12:23;;;;;;;37.67;19.73;;;;;;;1.04;96.15;101203.19;5051508;28;20329;-79
2024/03/08 08:14:50;;;;;;;32.77;18.70;;;;;;;1.13;94.40;101197.78;5049414;28;20237;-81
2024/03/08 08:17:17;;;;;;;33.73;19.00;;;;;;;1.22;95.33;101195.03;5051146;28;20608;-82
2024/03/08 08:19:43;;;;;;;33.13;19.10;;;;;;;1.33;94.74;101186.97;5053276;28;20248;-81
2024/03/08 08:22:11;;;;;;;37.73;18.83;;;;;;;1.46;93.37;101188.47;5053205;28;20205;-83
2024/03/08 08:24:40;;;;;;;39.40;20.10;;;;;;;1.52;91.10;101190.16;5052054;28;20619;-81
2024/03/08 08:27:06;;;;;;;33.20;18.33;;;;;;;1.63;90.66;101180.31;5052496;28;20249;-83
2024/03/08 08:29:33;;;;;;;30.77;19.70;;;;;;;1.76;91.36;101183.59;5052083;28;20193;-83
2024/03/08 08:32:00;;;;;;;34.27;19.50;;;;;;;1.87;90.37;101176.38;5046755;28;20233;-82
2024/03/08 08:34:27;;;;;;;37.47;20.90;;;;;;;2.04;90.82;101177.75;5049794;28;20304;-82
2024/03/08 08:36:53;;;;;;;37.77;20.53;;;;;;;2.21;89.62;101176.56;5052695;28;20620;-83
2024/03/08 08:39:22;;;;;;;32.73;19.07;;;;;;;2.35;88.60;101174.50;5055893;28;20292;-83
2024/03/08 08:41:50;;;;;;;33.80;19.60;;;;;;;2.47;86.57;101182.13;5053318;28;20259;-82
2024/03/08 08:44:17;;;;;;;33.20;19.43;;;;;;;2.57;85.90;101177.53;5048520;28;20647;-82
2024/03/08 08:46:43;;;;;;;31.73;17.47;;;;;;;2.61;84.54;101168.69;5049600;28;20245;-83
2024/03/08 08:49:10;;;;;;;33.60;19.13;;;;;;;2.73;84.84;101169.25;5048899;28;20202;-83
2024/03/08 08:51:37;;;;;;;33.13;19.13;;;;;;;2.87;84.67;101173.34;5054074;28;21667;-82
2024/03/08 08:54:04;;;;;;;33.93;17.90;;;;;;;2.99;82.23;101167.81;5050219;28;20646;-82
2024/03/08 08:56:30;;;;;;;31.87;18.97;;;;;;;3.04;81.96;101163.31;5053478;28;20279;-83
2024/03/08 08:58:58;;;;;;;37.03;19.13;;;;;;;3.14;82.17;101151.63;5051342;28;20264;-79
2024/03/08 09:01:25;;;;;;;31.27;18.93;;;;;;;3.18;81.25;101155.06;5048931;28;20202;-83
2024/03/08 09:03:51;;;;;;;31.20;17.57;;;;;;;3.29;80.27;101145.97;5053426;28;20237;-81
2024/03/08 09:06:18;;;;;;;28.93;18.20;;;;;;;3.42;80.55;101141.25;5050084;28;20672;-83
2024/03/08 09:08:46;;;;;;;32.07;18.43;;;;;;;3.49;80.26;101143.69;5052000;28;20248;-83
2024/03/08 09:11:12;;;;;;;34.20;19.60;;;;;;;3.57;79.22;101145.28;5048780;28;20209;-83
2024/03/08 09:13:39;;;;;;;32.97;18.07;;;;;;;3.67;78.34;101141.47;5052951;28;20573;-83
2024/03/08 09:16:07;;;;;;;31.90;19.43;;;;;;;3.77;78.99;101137.66;5050809;28;20257;-83
2024/03/08 09:18:35;;;;;;;33.03;18.03;;;;;;;3.84;77.65;101131.34;5050275;28;20201;-81
2024/03/08 09:21:01;;;;;;;34.07;19.20;;;;;;;3.91;77.52;101132.91;5053052;28;20233;-83
2024/03/08 09:23:30;;;;;;;33.27;19.17;;;;;;;4.03;78.11;101123.78;5059667;28;20197;-83
2024/03/08 09:25:57;;;;;;;36.80;19.83;;;;;;;4.09;76.60;101124.47;5058769;28;20229;-82
2024/03/08 09:28:23;;;;;;;32.20;18.60;;;;;;;4.21;76.73;101117.09;5054786;28;20212;-83
2024/03/08 09:30:50;;;;;;;31.60;18.63;;;;;;;4.24;75.79;101106.47;5054294;28;20213;-81
2024/03/08 09:33:19;;;;;;;32.93;18.90;;;;;;;4.36;75.33;101106.09;5053760;28;20267;-82
2024/03/08 09:35:46;;;;;;;30.00;18.03;;;;;;;4.43;75.05;101108.50;5050083;28;20253;-82
2024/03/08 09:38:14;;;;;;;30.77;18.70;;;;;;;4.46;73.59;101099.63;5052553;28;20221;-81
2024/03/08 09:40:42;;;;;;;35.87;18.57;;;;;;;4.51;74.58;101098.56;5056829;28;20212;-82
2024/03/08 09:43:11;;;;;;;30.77;18.13;;;;;;;4.63;75.01;101094.69;5053871;28;20229;-83
2024/03/08 09:45:39;;;;;;;32.07;17.93;;;;;;;4.73;72.40;101088.19;5050071;28;20643;-81
2024/03/08 09:48:08;;;;;;;30.30;18.33;;;;;;;4.83;72.94;101078.22;5052838;28;20224;-80
2024/03/08 09:50:36;;;;;;;29.37;18.20;;;;;;;4.96;71.96;101065.47;5050516;28;20212;-82
2024/03/08 09:53:03;;;;;;;28.53;17.37;;;;;;;4.99;71.72;101068.88;5054640;28;20742;-82
2024/03/08 09:55:34;;;;;;;29.70;18.13;;;;;;;5.03;71.78;101065.19;5054714;28;20221;-81
2024/03/08 09:58:36;;;;;;;30.57;19.87;;;;;;;5.06;71.43;101062.47;5049721;28;20202;-83
2024/03/08 10:01:04;;;;;;;28.30;19.30;;;;;;;5.16;71.62;101061.25;5056470;28;20274;-81
2024/03/08 10:03:32;;;;;;;30.37;17.33;;;;;;;5.13;69.88;101042.88;5049043;28;20202;-83
2024/03/08 10:06:01;;;;;;;31.93;19.53;;;;;;;5.20;70.84;101048.78;5051266;28;20610;-81
2024/03/08 10:08:29;;;;;;;31.80;19.60;;;;;;;5.29;70.14;101047.59;5055747;28;20204;-82
2024/03/08 10:10:57;;;;;;;33.53;19.47;;;;;;;5.36;70.63;101046.47;5050414;28;20245;-83
2024/03/08 10:13:26;;;;;;;28.77;16.37;;;;;;;5.31;69.91;101040.50;5053403;28;20233;-83
2024/03/08 10:15:53;;;;;;;32.30;17.73;;;;;;;5.34;71.00;101028.06;5046912;28;20309;-82
2024/03/08 10:18:21;;;;;;;29.53;18.50;;;;;;;5.35;70.26;101032.41;5054429;28;20239;-82
2024/03/08 10:21:03;;;;;;;28.23;18.37;;;;;;;5.41;71.17;101021.59;5050376;28;20664;-82
2024/03/08 10:23:31;;;;;;;31.87;19.17;;;;;;;5.45;70.08;101031.16;5052661;28;20674;-82
2024/03/08 10:25:58;;;;;;;33.23;19.47;;;;;;;5.43;71.11;101030.34;5053363;28;20655;-82
2024/03/08 10:28:25;;;;;;;30.87;17.23;;;;;;;5.49;72.13;101024.84;5051397;28;20205;-81
2024/03/08 10:30:52;;;;;;;35.03;19.50;;;;;;;5.52;70.53;101021.25;5051232;28;20210;-80
2024/03/08 10:33:18;;;;;;;32.47;19.20;;;;;;;5.49;69.23;101024.84;5050634;28;20335;-81
2024/03/08 10:35:45;;;;;;;29.67;18.83;;;;;;;5.45;69.46;101017.94;5049351;28;20316;-81
2024/03/08 10:38:16;;;;;;;34.03;18.67;;;;;;;5.54;71.17;101012.34;5055224;28;20293;-80
2024/03/08 10:40:45;;;;;;;32.50;19.97;;;;;;;5.61;70.53;101017.38;5053807;28;20209;-81
2024/03/08 10:43:25;;;;;;;35.03;19.53;;;;;;;5.69;71.89;101015.31;5052079;28;20228;-81
2024/03/08 10:45:56;;;;;;;29.73;17.53;;;;;;;5.79;70.63;101011.41;5044600;28;20697;-82
2024/03/08 10:48:31;;;;;;;30.43;18.43;;;;;;;5.85;69.92;101014.69;5047583;28;20289;-82
2024/03/08 10:50:58;;;;;;;31.93;20.17;;;;;;;5.92;71.77;101008.25;5051908;28;20205;-83
2024/03/08 10:53:29;;;;;;;28.93;17.77;;;;;;;5.91;69.06;101009.19;5051128;28;20288;-81
2024/03/08 10:55:57;;;;;;;33.13;18.67;;;;;;;5.97;69.96;101010.75;5053396;28;20236;-81
2024/03/08 10:58:27;;;;;;;35.93;20.27;;;;;;;5.99;69.45;100995.69;5051180;28;20232;-83
2024/03/08 11:00:54;;;;;;;28.63;18.63;;;;;;;6.05;69.62;100992.81;5056354;28;20201;-83
2024/03/08 11:03:53;;;;;;;29.97;19.23;;;;;;;6.08;69.10;100995.34;5049641;28;20204;-81
2024/03/08 11:06:23;;;;;;;31.17;17.57;;;;;;;6.14;69.32;100983.63;5051394;28;20831;-81
2024/03/08 11:08:51;;;;;;;28.83;16.53;;;;;;;6.17;68.38;100987.03;5049082;28;20586;-82
2024/03/08 11:11:35;;;;;;;25.70;16.53;;;;;;;6.09;66.65;100975.88;5050767;28;20729;-81
2024/03/08 11:14:03;;;;;;;31.93;17.50;;;;;;;6.06;67.41;100968.09;5044426;28;20316;-83